地図

経路データ

SID SEASON NUMBER BASIN SUBBASIN NAME ISO_TIME NATURE LAT LON WMO_WIND WMO_PRES WMO_AGENCY TRACK_TYPE DIST2LAND LANDFALL IFLAG USA_AGENCY USA_ATCF_ID USA_LAT USA_LON USA_RECORD USA_STATUS USA_WIND USA_PRES USA_SSHS USA_R34_NE USA_R34_SE USA_R34_SW USA_R34_NW USA_R50_NE USA_R50_SE USA_R50_SW USA_R50_NW USA_R64_NE USA_R64_SE USA_R64_SW USA_R64_NW USA_POCI USA_ROCI USA_RMW USA_EYE TOKYO_LAT TOKYO_LON TOKYO_GRADE TOKYO_WIND TOKYO_PRES TOKYO_R50_DIR TOKYO_R50_LONG TOKYO_R50_SHORT TOKYO_R30_DIR TOKYO_R30_LONG TOKYO_R30_SHORT TOKYO_LAND CMA_LAT CMA_LON CMA_CAT CMA_WIND CMA_PRES HKO_LAT HKO_LON HKO_CAT HKO_WIND HKO_PRES NEWDELHI_LAT NEWDELHI_LON NEWDELHI_GRADE NEWDELHI_WIND NEWDELHI_PRES NEWDELHI_CI NEWDELHI_DP NEWDELHI_POCI REUNION_LAT REUNION_LON REUNION_TYPE REUNION_WIND REUNION_PRES REUNION_TNUM REUNION_CI REUNION_RMW REUNION_R34_NE REUNION_R34_SE REUNION_R34_SW REUNION_R34_NW REUNION_R50_NE REUNION_R50_SE REUNION_R50_SW REUNION_R50_NW REUNION_R64_NE REUNION_R64_SE REUNION_R64_SW REUNION_R64_NW BOM_LAT BOM_LON BOM_TYPE BOM_WIND BOM_PRES BOM_TNUM BOM_CI BOM_RMW BOM_R34_NE BOM_R34_SE BOM_R34_SW BOM_R34_NW BOM_R50_NE BOM_R50_SE BOM_R50_SW BOM_R50_NW BOM_R64_NE BOM_R64_SE BOM_R64_SW BOM_R64_NW BOM_ROCI BOM_POCI BOM_EYE BOM_POS_METHOD BOM_PRES_METHOD NADI_LAT NADI_LON NADI_CAT NADI_WIND NADI_PRES WELLINGTON_LAT WELLINGTON_LON WELLINGTON_WIND WELLINGTON_PRES DS824_LAT DS824_LON DS824_STAGE DS824_WIND DS824_PRES TD9636_LAT TD9636_LON TD9636_STAGE TD9636_WIND TD9636_PRES TD9635_LAT TD9635_LON TD9635_WIND TD9635_PRES TD9635_ROCI NEUMANN_LAT NEUMANN_LON NEUMANN_CLASS NEUMANN_WIND NEUMANN_PRES MLC_LAT MLC_LON MLC_CLASS MLC_WIND MLC_PRES USA_GUST BOM_GUST BOM_GUST_PER REUNION_GUST REUNION_GUST_PER USA_SEAHGT USA_SEARAD_NE USA_SEARAD_SE USA_SEARAD_SW USA_SEARAD_NW STORM_SPEED STORM_DIR
1969209N19090 1969 47 NI BB NOT_NAMED 1969-07-27 18:00:00 TS 18.7000 89.6000 main 328 317 O________O____ jtwc_io IO041969 18.7000 89.6000 -1 18.7000 89.6000 TC 2 336
1969209N19090 1969 47 NI BB NOT_NAMED 1969-07-27 21:00:00 TS 18.8025 89.5575 main 317 304 P________P____ IO041969 18.8025 89.5575 -1 18.8025 89.5575 TC 2 333
1969209N19090 1969 47 NI BB NOT_NAMED 1969-07-28 00:00:00 TS 18.9000 89.5000 main 304 292 O________O____ jtwc_io IO041969 18.9000 89.5000 -1 18.9000 89.5000 TC 25 2 325
1969209N19090 1969 47 NI BB NOT_NAMED 1969-07-28 03:00:00 TS 18.9933 89.4133 main 292 280 P________PO___ IO041969 18.9925 89.4150 -1 18.9925 89.4150 TC 25 19.0000 89.4000 1 3 317
1969209N19090 1969 47 NI BB NOT_NAMED 1969-07-28 06:00:00 TS 19.1056 89.2944 main 280 268 O________OP___ jtwc_io IO041969 19.1000 89.3000 -1 19.1000 89.3000 TC 25 19.1282 89.2721 1 4 316
1969209N19090 1969 47 NI BB NOT_NAMED 1969-07-28 09:00:00 TS 19.2514 89.1487 main 257 246 P________PP___ IO041969 19.2500 89.1500 -1 19.2500 89.1500 TC 25 19.2551 89.1452 1 4 317
1969209N19090 1969 47 NI BB NOT_NAMED 1969-07-28 12:00:00 TS 19.3931 89.0069 main 246 234 O________OP___ jtwc_io IO041969 19.4000 89.0000 -1 19.4000 89.0000 TC 25 19.3794 89.0208 1 3 317
1969209N19090 1969 47 NI BB NOT_NAMED 1969-07-28 15:00:00 TS 19.5000 88.9000 main 234 223 P________PO___ IO041969 19.5000 88.8999 -1 19.5000 88.8999 TC 25 19.5000 88.9000 1 3 316
1969209N19090 1969 47 NI BB NOT_NAMED 1969-07-28 18:00:00 TS 19.6056 88.7943 main 223 209 O________OP___ jtwc_io IO041969 19.6000 88.8000 -1 19.6000 88.8000 TC 25 19.6168 88.7830 1 3 317
1969209N19090 1969 47 NI BB NOT_NAMED 1969-07-28 21:00:00 TS 19.7450 88.6549 main 209 180 P________PP___ IO041969 19.7500 88.6500 -1 19.7500 88.6500 TC 25 19.7349 88.6648 1 4 317
1969209N19090 1969 47 NI BB NOT_NAMED 1969-07-29 00:00:00 TS 19.8868 88.5131 main 180 165 O________OP___ jtwc_io IO041969 19.9000 88.5000 -1 19.9000 88.5000 TC 25 19.8605 88.5392 1 3 317
1969209N19090 1969 47 NI BB NOT_NAMED 1969-07-29 03:00:00 TS 19.9950 88.4049 main 165 151 P________PO___ IO041969 19.9924 88.4074 -1 19.9924 88.4074 TC 25 20.0000 88.4000 1 3 317
1969209N19090 1969 47 NI BB NOT_NAMED 1969-07-29 06:00:00 TS 20.1216 88.2785 main 151 122 O________OP___ jtwc_io IO041969 20.1000 88.3000 -1 20.1000 88.3000 TC 25 20.1647 88.2354 1 4 317
1969209N19090 1969 47 NI BB NOT_NAMED 1969-07-29 09:00:00 TS 20.3042 88.0959 main 122 96 P________PP___ IO041969 20.2850 88.1150 -1 20.2850 88.1150 TC 25 20.3426 88.0576 1 5 317
1969209N19090 1969 47 NI BB NOT_NAMED 1969-07-29 12:00:00 TS 20.5080 87.8920 main 96 72 O________OP___ jtwc_io IO041969 20.5000 87.9000 -1 20.5000 87.9000 TC 25 20.5241 87.8760 1 6 317
1969209N19090 1969 47 NI BB NOT_NAMED 1969-07-29 15:00:00 TS 20.7050 87.6900 main 72 53 P________PO___ IO041969 20.7075 87.6850 -1 20.7075 87.6850 TC 25 20.7000 87.7000 1 5 318
1969209N19090 1969 47 NI BB NOT_NAMED 1969-07-29 18:00:00 TS 20.8870 87.5263 main 53 47 O________OP___ jtwc_io IO041969 20.9000 87.5000 -1 20.9000 87.5000 TC 25 20.8609 87.5790 1 4 324
1969209N19090 1969 47 NI BB NOT_NAMED 1969-07-29 21:00:00 TS 21.0481 87.4247 main 47 38 P________PP___ IO041969 21.0649 87.4074 -1 21.0649 87.4074 TC 25 21.0144 87.4594 1 4 325
1969209N19090 1969 47 NI BB NOT_NAMED 1969-07-30 00:00:00 TS 21.1869 87.3034 main 38 15 O________OP___ jtwc_io IO041969 21.2000 87.3000 -1 21.2000 87.3000 TC 25 21.1607 87.3102 1 4 309
1969209N19090 1969 47 NI BB NOT_NAMED 1969-07-30 03:00:00 TS 21.2999 87.0966 main 15 0 P________PO___ IO041969 21.2999 87.0949 -1 21.2999 87.0949 TC 25 21.3000 87.1000 1 5 295
1969209N19090 1969 47 NI BB NOT_NAMED 1969-07-30 06:00:00 TS 21.4082 86.7925 main 0 0 O________OP___ jtwc_io IO041969 21.4000 86.8000 -1 21.4000 86.8000 TC 25 21.4245 86.7775 1 7 291
1969209N19090 1969 47 NI BB NOT_NAMED 1969-07-30 09:00:00 TS 21.5428 86.4083 main 0 0 P________PP___ IO041969 21.5426 86.4151 -1 21.5426 86.4151 TC 25 21.5432 86.3949 1 8 291
1969209N19090 1969 47 NI BB NOT_NAMED 1969-07-30 12:00:00 TS 21.6884 85.9966 main 0 0 O________OP___ jtwc_io IO041969 21.7000 86.0000 -1 21.7000 86.0000 TC 25 21.6651 85.9899 1 8 292
1969209N19090 1969 47 NI BB NOT_NAMED 1969-07-30 15:00:00 TS 21.8333 85.6233 main 0 0 P________PO___ IO041969 21.8499 85.6349 -1 21.8499 85.6349 TC 25 21.8000 85.6000 1 7 294
1969209N19090 1969 47 NI BB NOT_NAMED 1969-07-30 18:00:00 TS 21.9854 85.2914 main 0 0 O________OP___ jtwc_io IO041969 22.0000 85.3000 -1 22.0000 85.3000 TC 25 21.9562 85.2742 1 7 297
1969209N19090 1969 47 NI BB NOT_NAMED 1969-07-30 21:00:00 TS 22.1373 84.9848 main 0 0 P________PP___ IO041969 22.1424 84.9924 -1 22.1424 84.9924 TC 25 22.1271 84.9697 1 6 300
1969209N19090 1969 47 NI BB NOT_NAMED 1969-07-31 00:00:00 TS 22.3031 84.6935 main 0 0 O________OP___ jtwc_io IO041969 22.3000 84.7000 -1 22.3000 84.7000 TC 25 22.3094 84.6804 1 7 303
1969209N19090 1969 47 NI BB NOT_NAMED 1969-07-31 03:00:00 TS 22.4950 84.3950 main 0 0 P________PO___ IO041969 22.4925 84.3925 -1 22.4925 84.3925 TC 25 22.5000 84.4000 1 7 306
1969209N19090 1969 47 NI BB NOT_NAMED 1969-07-31 06:00:00 TS 22.7057 84.1033 main 0 0 O________OP___ jtwc_io IO041969 22.7000 84.1000 -1 22.7000 84.1000 TC 25 22.7171 84.1099 1 7 309
1969209N19090 1969 47 NI BB NOT_NAMED 1969-07-31 09:00:00 TS 22.9174 83.8376 main 0 0 P________PP___ IO041969 22.9074 83.8424 -1 22.9074 83.8424 TC 25 22.9374 83.8278 1 6 311
1969209N19090 1969 47 NI BB NOT_NAMED 1969-07-31 12:00:00 TS 23.1130 83.5856 main 0 0 O________OP___ jtwc_io IO041969 23.1000 83.6000 -1 23.1000 83.6000 TC 25 23.1390 83.5568 1 6 309
1969209N19090 1969 47 NI BB NOT_NAMED 1969-07-31 15:00:00 TS 23.2866 83.3334 main 0 0 P________PO___ IO041969 23.2800 83.3500 -1 23.2800 83.3500 TC 25 23.3000 83.3000 1 5 301
1969209N19090 1969 47 NI BB NOT_NAMED 1969-07-31 18:00:00 TS 23.3854 83.0906 main 0 0 O________OP___ jtwc_io IO041969 23.4000 83.1000 -1 23.4000 83.1000 TC 25 23.3562 83.0718 1 5 283
1969209N19090 1969 47 NI BB NOT_NAMED 1969-07-31 21:00:00 TS 23.3923 82.8518 main 0 0 P________PP___ IO041969 23.4000 82.8497 -1 23.4000 82.8497 TC 25 23.3770 82.8560 1 4 272
1969209N19090 1969 47 NI BB NOT_NAMED 1969-08-01 00:00:00 TS 23.4031 82.6124 main 0 0 O________OP___ jtwc_io IO041969 23.4000 82.6000 -1 23.4000 82.6000 TC 25 23.4093 82.6373 1 5 285
1969209N19090 1969 47 NI BB NOT_NAMED 1969-08-01 03:00:00 TS 23.5083 82.3716 main 0 0 P________PO___ IO041969 23.5124 82.3574 -1 23.5124 82.3574 TC 25 23.5000 82.4000 1 5 302
1969209N19090 1969 47 NI BB NOT_NAMED 1969-08-01 06:00:00 TS 23.6934 82.1128 main 0 0 O________OP___ jtwc_io IO041969 23.7000 82.1000 -1 23.7000 82.1000 TC 25 23.6836 82.1320 1 7 311
1969209N19090 1969 47 NI BB NOT_NAMED 1969-08-01 09:00:00 TS 23.9411 81.8219 main 0 0 P________PP___ IO041969 23.9377 81.8103 -1 23.9377 81.8103 TC 25 23.9458 81.8373 1 8 314
1969209N19090 1969 47 NI BB NOT_NAMED 1969-08-01 12:00:00 TS 24.2300 81.5119 main 0 0 O________OP___ jtwc_io IO041969 24.2000 81.5000 -1 24.2000 81.5000 TC 25 24.2601 81.5238 1 9 319
1969209N19090 1969 47 NI BB NOT_NAMED 1969-08-01 15:00:00 NR 24.6000 81.2000 main 0 __________O___ IO041969 -1 TC 24.6000 81.2000 1 9 323

IBTrACS Databaseについて

本データベースは、米国NOAAが公開する1842年以降の世界の熱帯低気圧のベストトラックデータアーカイブInternational Best Track Archive for Climate Stewardship (IBTrACS)を、ウェブで閲覧しやすい形式に変換したものです。

最終更新日:2021-10-08